createdAt,value
2019-06-10T00:00:51.930Z,2.90
2019-06-10T00:01:51.897Z,3.60
2019-06-10T00:02:51.868Z,3.10
2019-06-10T00:03:51.964Z,3.10
2019-06-10T00:04:51.848Z,3.10
2019-06-10T00:05:51.887Z,3.10
2019-06-10T00:06:51.826Z,3.00
2019-06-10T00:07:51.840Z,3.00
2019-06-10T00:08:51.801Z,3.10
2019-06-10T00:09:51.789Z,3.00
2019-06-10T00:10:51.811Z,3.20
2019-06-10T00:11:51.802Z,3.20
2019-06-10T00:12:55.179Z,3.00
2019-06-10T00:13:51.757Z,3.10
2019-06-10T00:14:51.751Z,2.90
2019-06-10T00:15:51.770Z,3.20
2019-06-10T00:16:51.710Z,3.10
2019-06-10T00:18:01.369Z,3.00
2019-06-10T00:18:52.689Z,3.40
2019-06-10T00:19:51.696Z,3.10
2019-06-10T00:20:51.708Z,3.00
2019-06-10T00:21:51.660Z,3.30
2019-06-10T00:22:51.651Z,3.20
2019-06-10T00:23:51.920Z,3.20
2019-06-10T00:24:52.186Z,2.90
2019-06-10T00:25:51.745Z,3.00
2019-06-10T00:26:51.608Z,2.80
2019-06-10T00:27:51.625Z,3.30
2019-06-10T00:28:51.594Z,3.00
2019-06-10T00:29:51.581Z,3.20
2019-06-10T00:30:51.716Z,3.00
2019-06-10T00:31:51.604Z,3.20
2019-06-10T00:32:51.689Z,2.80
2019-06-10T00:33:52.045Z,3.50
2019-06-10T00:34:51.543Z,3.00
2019-06-10T00:35:51.628Z,3.30
2019-06-10T00:36:51.496Z,3.40
2019-06-10T00:37:51.510Z,3.20
2019-06-10T00:38:51.868Z,3.20
2019-06-10T00:39:51.495Z,3.20
2019-06-10T00:40:51.537Z,3.30
2019-06-10T00:41:52.135Z,3.40
2019-06-10T00:42:51.436Z,3.80
2019-06-10T00:43:51.808Z,3.20
2019-06-10T00:44:51.432Z,3.20
2019-06-10T00:45:51.562Z,3.10
2019-06-10T00:46:51.783Z,3.40
2019-06-10T00:48:06.578Z,2.80
2019-06-10T00:48:52.381Z,3.20
2019-06-10T00:49:51.613Z,3.00
2019-06-10T00:50:51.862Z,2.90
2019-06-10T00:51:51.335Z,3.20
2019-06-10T00:52:51.788Z,3.40
2019-06-10T00:53:51.560Z,3.20
2019-06-10T00:54:51.884Z,3.40
2019-06-10T00:55:51.684Z,3.40
2019-06-10T00:56:51.837Z,3.50
2019-06-10T00:57:51.275Z,3.40
2019-06-10T00:58:51.519Z,3.40
2019-06-10T00:59:51.275Z,3.10
2019-06-10T01:00:51.827Z,3.10
2019-06-10T01:01:51.225Z,3.10
2019-06-10T01:02:51.806Z,3.20
2019-06-10T01:03:51.236Z,3.10
2019-06-10T01:04:51.464Z,3.30
2019-06-10T01:05:51.221Z,3.60
2019-06-10T01:06:51.631Z,3.40
2019-06-10T01:07:51.156Z,3.20
2019-06-10T01:08:51.372Z,3.40
2019-06-10T01:09:51.716Z,3.00
2019-06-10T01:10:52.199Z,3.20
2019-06-10T01:11:51.957Z,3.30
2019-06-10T01:12:51.404Z,3.60
2019-06-10T01:13:51.180Z,3.80
2019-06-10T01:14:51.724Z,3.20
2019-06-10T01:15:51.240Z,3.20
2019-06-10T01:16:51.057Z,3.30
2019-06-10T01:17:51.220Z,3.30
2019-06-10T01:18:53.438Z,3.10
2019-06-10T01:19:51.074Z,3.30
2019-06-10T01:20:51.732Z,3.10
2019-06-10T01:21:51.349Z,3.30
2019-06-10T01:22:51.638Z,3.20
2019-06-10T01:23:51.128Z,3.10
2019-06-10T01:24:51.184Z,3.20
2019-06-10T01:25:51.166Z,3.20
2019-06-10T01:26:50.956Z,3.20
2019-06-10T01:27:51.540Z,3.40
2019-06-10T01:28:51.617Z,3.20
2019-06-10T01:29:51.199Z,3.40
2019-06-10T01:30:51.717Z,3.40
2019-06-10T01:31:51.356Z,3.10
2019-06-10T01:32:50.909Z,3.40
2019-06-10T01:33:51.450Z,3.40
2019-06-10T01:34:50.949Z,3.20
2019-06-10T01:35:51.479Z,3.50
2019-06-10T01:36:51.058Z,3.30
2019-06-10T01:37:52.007Z,3.30
2019-06-10T01:38:51.299Z,3.10
2019-06-10T01:39:51.528Z,3.30
2019-06-10T01:40:51.081Z,3.20
2019-06-10T01:41:51.179Z,3.20
2019-06-10T01:42:50.770Z,3.00
2019-06-10T01:43:51.246Z,3.30
2019-06-10T01:44:50.777Z,2.90
2019-06-10T01:45:51.181Z,3.20
2019-06-10T01:46:51.628Z,3.10
2019-06-10T01:47:51.186Z,3.10
2019-06-10T01:48:52.046Z,3.40
2019-06-10T01:49:51.691Z,3.40
2019-06-10T01:50:51.248Z,3.40
2019-06-10T01:51:51.512Z,3.30
2019-06-10T01:52:51.573Z,3.40
2019-06-10T01:53:51.486Z,3.90
2019-06-10T01:54:51.517Z,3.40
2019-06-10T01:55:51.955Z,3.90
2019-06-10T01:56:51.214Z,3.30
2019-06-10T01:57:51.876Z,3.90
2019-06-10T01:58:51.329Z,3.40
2019-06-10T01:59:50.999Z,3.60
2019-06-10T02:00:50.815Z,3.50
2019-06-10T02:01:51.743Z,3.60
2019-06-10T02:02:52.363Z,3.70
2019-06-10T02:03:51.865Z,3.90
2019-06-10T02:04:51.739Z,4.00
2019-06-10T02:05:51.678Z,3.80
2019-06-10T02:06:51.151Z,3.50
2019-06-10T02:07:51.597Z,3.70
2019-06-10T02:08:51.010Z,3.30
2019-06-10T02:09:51.730Z,4.00
2019-06-10T02:10:50.930Z,3.70
2019-06-10T02:11:51.396Z,3.60
2019-06-10T02:12:50.846Z,3.60
2019-06-10T02:13:51.547Z,3.60
2019-06-10T02:14:50.938Z,3.70
2019-06-10T02:15:51.396Z,3.80
2019-06-10T02:16:50.748Z,3.70
2019-06-10T02:17:50.991Z,3.60
2019-06-10T02:19:00.233Z,3.80
2019-06-10T02:19:51.365Z,3.70
2019-06-10T02:20:51.408Z,3.60
2019-06-10T02:21:51.038Z,3.60
2019-06-10T02:22:51.539Z,3.30
2019-06-10T02:23:52.035Z,3.40
2019-06-10T02:24:50.689Z,3.50
2019-06-10T02:25:51.275Z,3.20
2019-06-10T02:26:51.600Z,3.40
2019-06-10T02:27:50.759Z,3.60
2019-06-10T02:28:51.226Z,3.70
2019-06-10T02:29:50.723Z,3.30
2019-06-10T02:30:55.129Z,3.40
2019-06-10T02:31:52.144Z,3.40
2019-06-10T02:32:52.403Z,3.50
2019-06-10T02:33:52.340Z,3.30
2019-06-10T02:35:03.630Z,3.50
2019-06-10T02:35:53.805Z,3.30
2019-06-10T02:36:53.434Z,3.40
2019-06-10T02:37:50.197Z,3.60
2019-06-10T02:38:53.723Z,3.70
2019-06-10T02:39:50.162Z,3.60
2019-06-10T02:40:53.587Z,3.80
2019-06-10T02:41:53.341Z,4.10
2019-06-10T02:42:50.114Z,4.10
2019-06-10T02:43:53.169Z,4.10
2019-06-10T02:44:53.878Z,3.60
2019-06-10T02:45:52.909Z,4.40
2019-06-10T02:46:50.093Z,3.90
2019-06-10T02:47:53.117Z,4.00
2019-06-10T02:48:50.079Z,4.00
2019-06-10T02:49:59.127Z,4.30
2019-06-10T02:50:53.872Z,4.00
2019-06-10T02:51:50.068Z,4.10
2019-06-10T02:52:52.928Z,4.20
2019-06-10T02:53:53.543Z,3.80
2019-06-10T02:54:53.143Z,4.30
2019-06-10T02:55:53.545Z,4.10
2019-06-10T02:56:53.425Z,3.90
2019-06-10T02:57:49.948Z,4.40
2019-06-10T02:58:53.253Z,4.60
2019-06-10T02:59:49.932Z,4.40
2019-06-10T03:00:49.918Z,4.50
2019-06-10T03:01:49.927Z,4.40
2019-06-10T03:02:52.938Z,4.30
2019-06-10T03:03:51.098Z,4.20
2019-06-10T03:04:49.889Z,4.50
2019-06-10T03:05:53.413Z,4.00
2019-06-10T03:06:49.891Z,4.20
2019-06-10T03:07:53.104Z,4.50
2019-06-10T03:08:49.859Z,4.60
2019-06-10T03:09:49.822Z,4.20
2019-06-10T03:10:49.815Z,4.40
2019-06-10T03:11:53.319Z,4.20
2019-06-10T03:12:49.802Z,3.90
2019-06-10T03:13:49.769Z,4.20
2019-06-10T03:14:49.780Z,4.10
2019-06-10T03:15:52.120Z,4.30
2019-06-10T03:16:49.760Z,4.10
2019-06-10T03:17:52.009Z,4.10
2019-06-10T03:18:49.738Z,4.40
2019-06-10T03:19:50.778Z,4.30
2019-06-10T03:20:49.701Z,4.40
2019-06-10T03:21:52.046Z,4.50
2019-06-10T03:22:49.701Z,4.20
2019-06-10T03:23:49.661Z,4.00
2019-06-10T03:24:49.651Z,4.10
2019-06-10T03:25:49.645Z,3.90
2019-06-10T03:26:52.064Z,4.60
2019-06-10T03:27:49.644Z,4.30
2019-06-10T03:28:51.925Z,4.40
2019-06-10T03:29:49.623Z,4.80
2019-06-10T03:30:55.305Z,4.60
2019-06-10T03:31:54.823Z,4.70
2019-06-10T03:32:49.601Z,4.70
2019-06-10T03:33:53.853Z,5.00
2019-06-10T03:34:49.552Z,4.60
2019-06-10T03:35:49.600Z,5.00
2019-06-10T03:36:49.552Z,4.80
2019-06-10T03:37:49.511Z,4.60
2019-06-10T03:38:49.501Z,4.80
2019-06-10T03:39:49.503Z,4.70
2019-06-10T03:40:49.472Z,4.70
2019-06-10T03:41:49.491Z,4.40
2019-06-10T03:42:51.914Z,4.90
2019-06-10T03:43:49.452Z,4.60
2019-06-10T03:44:49.433Z,4.90
2019-06-10T03:45:49.422Z,5.00
2019-06-10T03:46:49.453Z,5.00
2019-06-10T03:47:49.393Z,4.50
2019-06-10T03:48:49.391Z,4.50
2019-06-10T03:49:52.789Z,4.80
2019-06-10T03:50:52.351Z,4.40
2019-06-10T03:51:49.394Z,4.70
2019-06-10T03:52:49.360Z,4.50
2019-06-10T03:53:49.334Z,5.00
2019-06-10T03:54:49.322Z,4.70
2019-06-10T03:55:49.327Z,4.60
2019-06-10T03:56:49.325Z,4.60
2019-06-10T03:57:49.290Z,4.90
2019-06-10T03:58:49.314Z,5.00
2019-06-10T03:59:49.273Z,4.40
2019-06-10T04:00:49.287Z,4.80
2019-06-10T04:01:49.274Z,4.80
2019-06-10T04:02:49.235Z,4.80
2019-06-10T04:03:49.251Z,4.50
2019-06-10T04:04:49.227Z,4.70
2019-06-10T04:05:49.202Z,4.80
2019-06-10T04:06:49.200Z,5.10
2019-06-10T04:07:49.176Z,4.70
2019-06-10T04:08:49.193Z,5.10
2019-06-10T04:09:49.177Z,4.70
2019-06-10T04:10:49.144Z,4.40
2019-06-10T04:11:49.135Z,4.50
2019-06-10T04:12:49.151Z,4.30
2019-06-10T04:13:49.146Z,4.70
2019-06-10T04:14:49.104Z,4.50
2019-06-10T04:15:49.096Z,5.00
2019-06-10T04:16:49.084Z,4.70
2019-06-10T04:17:49.080Z,4.60
2019-06-10T04:18:49.103Z,4.40
2019-06-10T04:20:05.223Z,4.70
2019-06-10T04:20:52.737Z,4.60
2019-06-10T04:21:49.025Z,4.80
2019-06-10T04:22:49.015Z,5.20
2019-06-10T04:23:49.045Z,4.70
2019-06-10T04:24:48.989Z,4.80
2019-06-10T04:25:48.977Z,4.60
2019-06-10T04:26:48.975Z,4.70
2019-06-10T04:27:48.963Z,4.60
2019-06-10T04:28:48.988Z,5.00
2019-06-10T04:29:48.938Z,4.80
2019-06-10T04:30:48.936Z,4.70
2019-06-10T04:31:48.930Z,4.80
2019-06-10T04:32:48.923Z,4.70
2019-06-10T04:33:48.918Z,4.90
2019-06-10T04:34:48.886Z,4.70
2019-06-10T04:35:48.927Z,4.70
2019-06-10T04:36:48.864Z,4.50
2019-06-10T04:37:48.856Z,4.70
2019-06-10T04:38:48.878Z,4.60
2019-06-10T04:39:48.829Z,4.40
2019-06-10T04:40:48.818Z,4.60
2019-06-10T04:41:48.819Z,4.50
2019-06-10T04:42:48.799Z,4.40
2019-06-10T04:43:48.808Z,4.60
2019-06-10T04:44:48.799Z,4.60
2019-06-10T04:45:48.777Z,4.40
2019-06-10T04:46:48.759Z,4.70
2019-06-10T04:47:48.747Z,4.50
2019-06-10T04:48:48.756Z,4.60
2019-06-10T04:49:48.718Z,4.40
2019-06-10T04:50:48.737Z,5.30
2019-06-10T04:51:48.739Z,4.60
2019-06-10T04:52:48.746Z,5.00
2019-06-10T04:53:48.728Z,5.00
2019-06-10T04:54:48.707Z,5.40
2019-06-10T04:55:48.686Z,5.20
2019-06-10T04:56:48.669Z,5.20
2019-06-10T04:57:48.689Z,5.30
2019-06-10T04:58:48.644Z,5.10
2019-06-10T04:59:48.651Z,4.90
2019-06-10T05:00:48.667Z,5.00
2019-06-10T05:01:48.592Z,4.70
2019-06-10T05:02:48.588Z,4.70
2019-06-10T05:03:48.622Z,4.80
2019-06-10T05:04:48.550Z,4.90
2019-06-10T05:05:48.548Z,4.50
2019-06-10T05:06:48.533Z,4.70
2019-06-10T05:07:48.550Z,4.80
2019-06-10T05:08:48.531Z,4.80
2019-06-10T05:09:48.501Z,4.80
2019-06-10T05:10:48.502Z,4.90
2019-06-10T05:11:48.478Z,4.60
2019-06-10T05:12:48.470Z,4.90
2019-06-10T05:13:48.490Z,4.60
2019-06-10T05:14:48.447Z,5.00
2019-06-10T05:15:48.449Z,5.00
2019-06-10T05:16:48.440Z,5.00
2019-06-10T05:17:48.440Z,4.70
2019-06-10T05:18:51.641Z,4.70
2019-06-10T05:19:49.425Z,4.50
2019-06-10T05:20:56.049Z,4.80
2019-06-10T05:21:49.371Z,4.50
2019-06-10T05:22:48.388Z,4.60
2019-06-10T05:23:48.342Z,5.10
2019-06-10T05:24:48.338Z,4.60
2019-06-10T05:25:48.322Z,4.70
2019-06-10T05:26:48.318Z,4.80
2019-06-10T05:27:48.341Z,4.60
2019-06-10T05:28:48.303Z,4.80
2019-06-10T05:29:48.272Z,4.40
2019-06-10T05:30:48.292Z,4.80
2019-06-10T05:31:48.273Z,4.60
2019-06-10T05:32:48.285Z,5.00
2019-06-10T05:33:48.248Z,4.70
2019-06-10T05:34:48.298Z,5.00
2019-06-10T05:35:48.213Z,4.60
2019-06-10T05:36:48.230Z,4.70
2019-06-10T05:37:48.229Z,4.50
2019-06-10T05:38:48.186Z,4.70
2019-06-10T05:39:48.266Z,4.00
2019-06-10T05:40:48.161Z,4.60
2019-06-10T05:41:50.270Z,4.70
2019-06-10T05:42:48.143Z,4.70
2019-06-10T05:43:48.131Z,4.60
2019-06-10T05:44:48.133Z,4.10
2019-06-10T05:45:48.106Z,4.60
2019-06-10T05:46:48.093Z,4.70
2019-06-10T05:47:48.085Z,4.50
2019-06-10T05:48:48.074Z,4.50
2019-06-10T05:49:48.083Z,4.50
2019-06-10T05:51:00.141Z,4.50
2019-06-10T05:51:49.034Z,4.70
2019-06-10T05:52:48.035Z,4.60
2019-06-10T05:53:49.175Z,4.70
2019-06-10T05:54:48.027Z,4.30
2019-06-10T05:55:48.003Z,4.50
2019-06-10T05:56:47.983Z,4.70
2019-06-10T05:57:47.988Z,5.40
2019-06-10T05:58:48.009Z,4.90
2019-06-10T05:59:47.987Z,4.40
2019-06-10T06:00:47.978Z,4.80
2019-06-10T06:01:47.949Z,4.40
2019-06-10T06:02:47.958Z,4.50
2019-06-10T06:03:47.947Z,5.00
2019-06-10T06:04:47.935Z,4.70
2019-06-10T06:05:47.897Z,4.60
2019-06-10T06:06:47.922Z,5.10
2019-06-10T06:08:01.392Z,5.40
2019-06-10T06:08:48.854Z,4.80
2019-06-10T06:09:47.885Z,5.00
2019-06-10T06:10:47.827Z,4.60
2019-06-10T06:11:47.826Z,4.80
2019-06-10T06:12:47.882Z,4.80
2019-06-10T06:13:47.805Z,4.80
2019-06-10T06:14:47.825Z,5.70
2019-06-10T06:15:47.795Z,5.40
2019-06-10T06:16:47.783Z,6.10
2019-06-10T06:18:03.249Z,5.50
2019-06-10T06:18:48.745Z,5.50
2019-06-10T06:19:47.728Z,5.20
2019-06-10T06:20:47.723Z,5.20
2019-06-10T06:21:48.025Z,5.20
2019-06-10T06:22:47.696Z,5.10
2019-06-10T06:23:47.723Z,5.20
2019-06-10T06:24:47.707Z,6.10
2019-06-10T06:25:47.666Z,5.20
2019-06-10T06:26:47.697Z,5.90
2019-06-10T06:27:47.668Z,4.90
2019-06-10T06:28:47.667Z,5.10
2019-06-10T06:29:47.639Z,5.40
2019-06-10T06:30:47.637Z,5.60
2019-06-10T06:31:47.598Z,5.50
2019-06-10T06:32:47.587Z,5.30
2019-06-10T06:33:47.633Z,5.30
2019-06-10T06:34:47.567Z,5.50
2019-06-10T06:35:47.596Z,5.40
2019-06-10T06:36:47.578Z,5.20
2019-06-10T06:37:47.564Z,6.00
2019-06-10T06:38:47.557Z,5.50
2019-06-10T06:39:47.516Z,5.70
2019-06-10T06:40:47.508Z,5.40
2019-06-10T06:41:47.552Z,5.50
2019-06-10T06:42:47.526Z,5.10
2019-06-10T06:43:47.528Z,5.50
2019-06-10T06:44:47.505Z,5.80
2019-06-10T06:45:47.483Z,5.80
2019-06-10T06:46:47.430Z,5.70
2019-06-10T06:47:47.427Z,5.50
2019-06-10T06:48:47.441Z,5.60
2019-06-10T06:49:47.402Z,5.30
2019-06-10T06:51:01.722Z,5.80
2019-06-10T06:51:55.183Z,5.60
2019-06-10T06:53:19.005Z,5.70
2019-06-10T06:53:53.049Z,6.10
2019-06-10T06:54:48.350Z,5.70
2019-06-10T06:55:47.356Z,5.60
2019-06-10T06:56:47.321Z,5.20
2019-06-10T06:57:47.339Z,5.60
2019-06-10T06:58:47.306Z,5.30
2019-06-10T06:59:47.290Z,5.20
2019-06-10T07:01:03.647Z,5.40
2019-06-10T07:01:48.295Z,5.60
2019-06-10T07:02:47.259Z,5.60
2019-06-10T07:03:47.250Z,5.60
2019-06-10T07:04:47.266Z,5.90
2019-06-10T07:05:47.222Z,5.30
2019-06-10T07:06:47.242Z,5.60
2019-06-10T07:07:47.200Z,5.20
2019-06-10T07:09:00.453Z,5.40
2019-06-10T07:09:48.211Z,5.20
2019-06-10T07:10:47.182Z,5.80
2019-06-10T07:11:47.221Z,5.40
2019-06-10T07:12:47.171Z,5.20
2019-06-10T07:13:47.146Z,6.00
2019-06-10T07:14:47.142Z,5.90
2019-06-10T07:15:47.621Z,5.50
2019-06-10T07:16:47.132Z,5.70
2019-06-10T07:17:47.123Z,6.00
2019-06-10T07:18:50.156Z,5.90
2019-06-10T07:19:47.071Z,6.00
2019-06-10T07:20:47.073Z,5.40
2019-06-10T07:22:05.364Z,5.90
2019-06-10T07:22:48.079Z,5.80
2019-06-10T07:23:47.200Z,6.20
2019-06-10T07:24:47.728Z,6.30
2019-06-10T07:25:47.763Z,5.90
2019-06-10T07:26:53.977Z,5.80
2019-06-10T07:27:48.025Z,6.00
2019-06-10T07:28:47.653Z,5.80
2019-06-10T07:29:47.488Z,5.90
2019-06-10T07:30:51.797Z,5.80
2019-06-10T07:31:50.237Z,6.40
2019-06-10T07:32:47.953Z,6.00
2019-06-10T07:33:47.465Z,5.80
2019-06-10T07:34:47.174Z,6.10
2019-06-10T07:35:46.901Z,6.20
2019-06-10T07:36:46.894Z,5.80
2019-06-10T07:37:46.890Z,5.80
2019-06-10T07:38:49.077Z,5.70
2019-06-10T07:39:46.884Z,5.90
2019-06-10T07:40:46.857Z,5.50
2019-06-10T07:41:47.912Z,5.70
2019-06-10T07:42:46.825Z,5.70
2019-06-10T07:43:49.643Z,6.20
2019-06-10T07:44:46.865Z,5.90
2019-06-10T07:45:48.059Z,5.60
2019-06-10T07:46:46.783Z,5.40
2019-06-10T07:47:46.783Z,5.10
2019-06-10T07:48:48.648Z,5.60
2019-06-10T07:49:46.776Z,5.90
2019-06-10T07:50:46.756Z,6.00
2019-06-10T07:51:46.796Z,5.90
2019-06-10T07:52:47.004Z,5.80
2019-06-10T07:53:46.960Z,5.50
2019-06-10T07:54:46.690Z,5.40
2019-06-10T07:55:46.794Z,5.60
2019-06-10T07:56:50.182Z,5.80
2019-06-10T07:57:46.718Z,5.50
2019-06-10T07:58:47.611Z,5.50
2019-06-10T07:59:46.650Z,5.90
2019-06-10T08:00:48.480Z,5.60
2019-06-10T08:01:51.385Z,5.50
2019-06-10T08:02:47.661Z,5.30
2019-06-10T08:03:46.750Z,5.50
2019-06-10T08:04:46.586Z,5.20
2019-06-10T08:05:46.831Z,5.90
2019-06-10T08:06:49.787Z,5.50
2019-06-10T08:07:48.812Z,5.10
2019-06-10T08:08:47.301Z,5.60
2019-06-10T08:09:47.470Z,5.60
2019-06-10T08:10:48.096Z,5.40
2019-06-10T08:11:48.281Z,5.30
2019-06-10T08:12:48.279Z,5.30
2019-06-10T08:13:47.964Z,5.00
2019-06-10T08:14:47.882Z,4.70
2019-06-10T08:15:46.498Z,5.60
2019-06-10T08:16:46.842Z,5.00
2019-06-10T08:17:46.489Z,4.90
2019-06-10T08:19:12.272Z,4.90
2019-06-10T08:19:50.785Z,5.20
2019-06-10T08:20:47.709Z,5.00
2019-06-10T08:21:49.201Z,4.50
2019-06-10T08:22:54.017Z,4.80
2019-06-10T08:23:48.519Z,4.50
2019-06-10T08:24:47.783Z,5.00
2019-06-10T08:25:52.963Z,5.20
2019-06-10T08:26:47.783Z,4.90
2019-06-10T08:27:47.858Z,4.40
2019-06-10T08:28:47.949Z,4.60
2019-06-10T08:29:49.480Z,4.20
2019-06-10T08:30:46.382Z,4.60
2019-06-10T08:31:48.434Z,4.50
2019-06-10T08:32:46.828Z,4.40
2019-06-10T08:33:48.787Z,4.50
2019-06-10T08:34:47.947Z,5.00
2019-06-10T08:35:56.086Z,5.20
2019-06-10T08:36:50.587Z,4.90
2019-06-10T08:37:47.479Z,4.80
2019-06-10T08:38:48.608Z,5.10
2019-06-10T08:39:47.606Z,4.40
2019-06-10T08:40:48.355Z,4.60
2019-06-10T08:41:49.071Z,4.20
2019-06-10T08:42:47.480Z,4.10
2019-06-10T08:43:48.416Z,4.10
2019-06-10T08:44:48.429Z,3.90
2019-06-10T08:45:48.396Z,4.20
2019-06-10T08:46:47.270Z,4.60
2019-06-10T08:47:47.729Z,5.20
2019-06-10T08:48:48.113Z,4.70
2019-06-10T08:49:47.924Z,4.40
2019-06-10T08:50:49.631Z,5.10
2019-06-10T08:51:48.862Z,4.80
2019-06-10T08:53:03.319Z,5.30
2019-06-10T08:53:49.950Z,4.30
2019-06-10T08:54:49.244Z,4.30
2019-06-10T08:55:50.085Z,4.20
2019-06-10T08:56:49.454Z,4.20
2019-06-10T08:57:47.534Z,4.40
2019-06-10T08:58:49.687Z,4.50
2019-06-10T08:59:47.769Z,4.60
2019-06-10T09:00:48.227Z,4.20
2019-06-10T09:01:49.793Z,4.70
2019-06-10T09:02:49.978Z,4.80
2019-06-10T09:03:49.068Z,4.20
2019-06-10T09:04:48.788Z,4.70
2019-06-10T09:05:49.085Z,4.30
2019-06-10T09:06:49.122Z,4.40
2019-06-10T09:07:49.631Z,4.30
2019-06-10T09:08:49.936Z,4.00
2019-06-10T09:09:49.101Z,4.80
2019-06-10T09:10:49.427Z,4.60
2019-06-10T09:11:49.687Z,5.40
2019-06-10T09:12:50.479Z,5.20
2019-06-10T09:13:48.448Z,3.80
2019-06-10T09:14:48.359Z,4.30
2019-06-10T09:16:03.679Z,4.40
2019-06-10T09:16:48.891Z,3.70
2019-06-10T09:17:49.320Z,4.00
2019-06-10T09:18:49.370Z,4.40
2019-06-10T09:19:48.797Z,4.40
2019-06-10T09:20:50.982Z,4.60
2019-06-10T09:21:51.107Z,4.50
2019-06-10T09:22:54.361Z,4.00
2019-06-10T09:23:50.434Z,4.10
2019-06-10T09:24:49.381Z,4.00
2019-06-10T09:25:49.551Z,4.00
2019-06-10T09:26:49.550Z,4.00
2019-06-10T09:27:48.020Z,3.80
2019-06-10T09:28:50.809Z,4.50
2019-06-10T09:29:49.745Z,4.00
2019-06-10T09:30:52.540Z,4.30
2019-06-10T09:31:49.655Z,4.30
2019-06-10T09:32:51.178Z,4.10
2019-06-10T09:33:50.801Z,4.00
2019-06-10T09:34:52.208Z,4.20
2019-06-10T09:35:49.567Z,3.90
2019-06-10T09:36:49.656Z,4.00
2019-06-10T09:37:49.986Z,3.90
2019-06-10T09:38:48.719Z,4.30
2019-06-10T09:39:51.782Z,4.20
2019-06-10T09:40:51.342Z,3.60
2019-06-10T09:41:55.509Z,3.40
2019-06-10T09:42:49.669Z,3.40
2019-06-10T09:43:50.327Z,3.20
2019-06-10T09:44:48.700Z,3.50
2019-06-10T09:45:47.565Z,3.90
2019-06-10T09:46:48.621Z,3.30
2019-06-10T09:47:49.060Z,3.50
2019-06-10T09:48:49.769Z,3.40
2019-06-10T09:49:49.213Z,3.20
2019-06-10T09:50:50.432Z,3.90
2019-06-10T09:51:49.898Z,3.40
2019-06-10T09:52:50.987Z,3.40
2019-06-10T09:53:54.625Z,3.50
2019-06-10T09:54:50.262Z,3.40
2019-06-10T09:55:49.714Z,3.80
2019-06-10T09:56:48.450Z,3.30
2019-06-10T09:57:47.637Z,3.70
2019-06-10T09:58:48.111Z,3.80
2019-06-10T09:59:49.669Z,3.10
2019-06-10T10:00:50.481Z,3.40
2019-06-10T10:01:49.064Z,3.80
2019-06-10T10:02:48.792Z,3.50
2019-06-10T10:03:50.325Z,3.50
2019-06-10T10:04:50.593Z,3.50
2019-06-10T10:05:59.425Z,3.60
2019-06-10T10:06:48.959Z,3.50
2019-06-10T10:07:48.908Z,3.10
2019-06-10T10:08:52.406Z,3.30
2019-06-10T10:09:49.813Z,3.00
2019-06-10T10:10:50.125Z,2.50
2019-06-10T10:11:47.714Z,2.90
2019-06-10T10:12:47.395Z,2.70
2019-06-10T10:13:47.657Z,2.70
2019-06-10T10:14:48.042Z,2.70
2019-06-10T10:15:45.610Z,2.90
2019-06-10T10:16:49.376Z,2.80
2019-06-10T10:17:48.263Z,2.50
2019-06-10T10:18:48.967Z,2.70
2019-06-10T10:19:48.681Z,2.40
2019-06-10T10:20:48.061Z,2.70
2019-06-10T10:21:49.432Z,2.70
2019-06-10T10:22:47.653Z,2.60
2019-06-10T10:23:54.235Z,3.20
2019-06-10T10:24:47.487Z,2.70
2019-06-10T10:25:47.811Z,3.00
2019-06-10T10:26:47.172Z,3.40
2019-06-10T10:27:48.339Z,2.90
2019-06-10T10:28:48.009Z,2.60
2019-06-10T10:29:47.154Z,2.80
2019-06-10T10:30:46.997Z,2.50
2019-06-10T10:31:48.977Z,2.50
2019-06-10T10:32:48.940Z,3.00
2019-06-10T10:33:46.239Z,4.30
2019-06-10T10:34:47.001Z,2.80
2019-06-10T10:35:46.395Z,3.30
2019-06-10T10:36:47.067Z,2.80
2019-06-10T10:37:44.971Z,2.50
2019-06-10T10:38:44.964Z,2.70
2019-06-10T10:39:45.218Z,2.40
2019-06-10T10:40:47.468Z,3.20
2019-06-10T10:41:46.774Z,2.40
2019-06-10T10:42:51.364Z,2.70
2019-06-10T10:43:48.856Z,2.40
2019-06-10T10:44:49.201Z,2.60
2019-06-10T10:45:47.860Z,2.30
2019-06-10T10:46:45.658Z,2.50
2019-06-10T10:47:46.879Z,2.40
2019-06-10T10:48:45.044Z,2.60
2019-06-10T10:49:45.048Z,2.50
2019-06-10T10:50:45.578Z,2.40
2019-06-10T10:51:44.935Z,2.30
2019-06-10T10:52:46.338Z,2.70
2019-06-10T10:53:48.595Z,2.50
2019-06-10T10:54:46.742Z,2.70
2019-06-10T10:55:45.271Z,2.60
2019-06-10T10:56:46.185Z,2.50
2019-06-10T10:57:45.216Z,2.70
2019-06-10T10:58:46.987Z,3.10
2019-06-10T10:59:46.035Z,2.20
2019-06-10T11:00:46.818Z,2.60
2019-06-10T11:01:45.763Z,2.80
2019-06-10T11:02:46.783Z,2.60
2019-06-10T11:03:47.326Z,2.60
2019-06-10T11:04:46.115Z,5.40
2019-06-10T11:05:47.644Z,4.30
2019-06-10T11:06:46.116Z,2.80
2019-06-10T11:07:45.862Z,2.70
2019-06-10T11:08:46.579Z,2.60
2019-06-10T11:09:45.395Z,2.60
2019-06-10T11:10:47.456Z,2.30
2019-06-10T11:11:45.808Z,2.20
2019-06-10T11:12:44.976Z,2.40
2019-06-10T11:13:45.327Z,4.80
2019-06-10T11:14:44.890Z,3.10
2019-06-10T11:15:45.770Z,2.50
2019-06-10T11:16:45.234Z,2.50
2019-06-10T11:17:45.097Z,3.50
2019-06-10T11:18:45.209Z,2.90
2019-06-10T11:19:45.166Z,2.80
2019-06-10T11:20:45.270Z,2.50
2019-06-10T11:21:45.286Z,2.20
2019-06-10T11:22:45.816Z,2.70
2019-06-10T11:23:46.091Z,2.50
2019-06-10T11:24:46.186Z,2.80
2019-06-10T11:25:45.694Z,3.00
2019-06-10T11:26:45.729Z,2.60
2019-06-10T11:27:46.300Z,2.50
2019-06-10T11:28:45.278Z,2.20
2019-06-10T11:29:44.405Z,2.30
2019-06-10T11:30:45.262Z,2.40
2019-06-10T11:31:44.405Z,2.60
2019-06-10T11:32:46.004Z,2.40
2019-06-10T11:33:44.356Z,2.80
2019-06-10T11:34:45.678Z,2.90
2019-06-10T11:35:44.340Z,3.80
2019-06-10T11:36:45.892Z,3.00
2019-06-10T11:37:44.318Z,3.10
2019-06-10T11:38:44.301Z,3.40
2019-06-10T11:39:44.337Z,2.70
2019-06-10T11:40:44.302Z,2.60
2019-06-10T11:41:44.266Z,2.70
2019-06-10T11:42:44.267Z,2.80
2019-06-10T11:43:44.274Z,2.90
2019-06-10T11:44:44.240Z,3.00
2019-06-10T11:45:48.366Z,3.00
2019-06-10T11:46:46.418Z,3.40
2019-06-10T11:47:44.234Z,3.20
2019-06-10T11:48:44.470Z,3.00
2019-06-10T11:49:44.254Z,3.40
2019-06-10T11:50:44.211Z,3.10
2019-06-10T11:51:44.167Z,3.00
2019-06-10T11:52:44.221Z,2.90
2019-06-10T11:53:44.228Z,2.80
2019-06-10T11:54:55.624Z,2.70
2019-06-10T11:55:45.128Z,2.70
2019-06-10T11:56:44.137Z,2.90
2019-06-10T11:57:44.129Z,2.80
2019-06-10T11:58:44.095Z,2.70
2019-06-10T11:59:44.231Z,3.20
2019-06-10T12:00:44.102Z,2.90
2019-06-10T12:01:44.063Z,3.10
2019-06-10T12:02:44.939Z,3.80
2019-06-10T12:03:44.056Z,3.70
2019-06-10T12:04:44.023Z,3.80
2019-06-10T12:05:44.052Z,4.30
2019-06-10T12:06:44.032Z,3.90
2019-06-10T12:07:44.046Z,3.70
2019-06-10T12:08:44.003Z,3.80
2019-06-10T12:09:43.984Z,3.90
2019-06-10T12:10:43.963Z,4.60
2019-06-10T12:11:44.087Z,4.80
2019-06-10T12:12:43.952Z,4.60
2019-06-10T12:13:43.933Z,4.50
2019-06-10T12:14:43.930Z,4.30
2019-06-10T12:16:30.568Z,4.20
2019-06-10T12:17:17.644Z,5.00
2019-06-10T12:17:50.913Z,4.40
2019-06-10T12:18:44.875Z,4.40
2019-06-10T12:19:43.877Z,4.50
2019-06-10T12:20:43.892Z,4.50
2019-06-10T12:21:43.846Z,4.50
2019-06-10T12:22:43.875Z,4.90
2019-06-10T12:23:43.850Z,4.40
2019-06-10T12:24:43.817Z,4.50
2019-06-10T12:25:47.669Z,5.10
2019-06-10T12:26:43.809Z,4.40
2019-06-10T12:27:43.798Z,4.90
2019-06-10T12:28:43.795Z,5.00
2019-06-10T12:29:43.757Z,4.90
2019-06-10T12:30:43.747Z,5.00
2019-06-10T12:31:43.738Z,4.30
2019-06-10T12:32:43.767Z,4.30
2019-06-10T12:33:43.721Z,4.20
2019-06-10T12:34:46.201Z,3.90
2019-06-10T12:35:43.700Z,4.10
2019-06-10T12:36:43.694Z,4.40
2019-06-10T12:37:43.727Z,3.70
2019-06-10T12:38:43.775Z,4.30
2019-06-10T12:39:43.651Z,4.10
2019-06-10T12:40:43.663Z,4.20
2019-06-10T12:41:43.639Z,4.10
2019-06-10T12:42:43.620Z,4.70
2019-06-10T12:43:43.671Z,4.30
2019-06-10T12:44:43.620Z,4.40
2019-06-10T12:45:43.938Z,4.70
2019-06-10T12:46:43.584Z,4.30
2019-06-10T12:47:43.572Z,4.50
2019-06-10T12:48:43.596Z,4.40
2019-06-10T12:49:43.558Z,4.80
2019-06-10T12:50:43.541Z,4.70
2019-06-10T12:51:44.051Z,4.60
2019-06-10T12:52:43.518Z,4.10
2019-06-10T12:53:43.658Z,4.20
2019-06-10T12:54:43.513Z,4.10
2019-06-10T12:55:47.023Z,3.90
2019-06-10T12:56:43.482Z,4.00
2019-06-10T12:57:43.463Z,4.00
2019-06-10T12:58:43.572Z,4.20
2019-06-10T12:59:43.466Z,4.40
2019-06-10T13:00:43.434Z,3.50
2019-06-10T13:01:44.866Z,3.80
2019-06-10T13:02:43.424Z,4.90
2019-06-10T13:03:43.910Z,4.80
2019-06-10T13:04:43.761Z,4.70
2019-06-10T13:05:43.730Z,4.60
2019-06-10T13:06:43.370Z,4.90
2019-06-10T13:07:43.355Z,5.10
2019-06-10T13:08:43.380Z,4.50
2019-06-10T13:09:43.982Z,4.50
2019-06-10T13:10:43.327Z,5.30
2019-06-10T13:11:43.478Z,4.80
2019-06-10T13:12:43.324Z,4.40
2019-06-10T13:13:43.326Z,4.20
2019-06-10T13:14:43.682Z,4.20
2019-06-10T13:15:43.591Z,4.20
2019-06-10T13:16:43.441Z,4.30
2019-06-10T13:17:44.137Z,4.20
2019-06-10T13:18:43.277Z,4.40